Guadalupe Mtns National Park, TX

10:54 AM MDT on July 29, 2014 (GMT -0600)
El Paso International (KELP) Elev 3917 ft | 31.81 °N, 106.38 °W | Change Station

Current weather conditions updated 3 minutes ago

Light Rain
Light Rain
70 °F
Feels Like 70 °F
N
10
Wind Variable Wind from NNW

Today is forecast to be nearly the same temperature as yesterday.

Today
High -- | Low -- °F
--% Chance of Precip.
Yesterday
High -- | Low -- °F
Precip. -- in
6:14 AM 7:58 PM
Waxing Crescent, 7% visible
Pressure 30.02 in
Visibility 8.0 miles
Clouds Scattered Clouds 4100 ft
Mostly Cloudy 6000 ft
Mostly Cloudy 9000 ft
Dew Point 66 °F
Humidity 87%
Rainfall 0.10 in
Snow Depth Not available.
UV 5 out of 12
Pollen 4.80 out of 12
Air Quality Not available.
Flu Activity Not available.
METAR KELP 291651Z 34009KT 8SM -RA SCT041 BKN060 BKN090 21/19 A3023 RMK AO2 RAB18 SLP165 P0001 T02110189

More Conditions Fewer Conditions

Pressure 30.02 in
Visibility 8.0 miles
Clouds Scattered Clouds 4100 ft
Mostly Cloudy 6000 ft
Mostly Cloudy 9000 ft
Dew Point 66 °F
Humidity 87%
Rainfall 0.10 in
Snow Depth Not available.
UV 5 out of 12
Pollen 4.80 out of 12
Air Quality Not available.
Flu Activity Not available.
METAR KELP 291651Z 34009KT 8SM -RA SCT041 BKN060 BKN090 21/19 A3023 RMK AO2 RAB18 SLP165 P0001 T02110189

More Conditions Fewer Conditions

10-Day Weather Forecast

Almanac

Astronomy

Jul. 29, 2014 Rise Set
Actual Time 6:14 AM MDT 7:58 PM MDT
Civil Twilight 5:47 AM MDT 8:25 PM MDT
Nautical Twilight 5:15 AM MDT 8:57 PM MDT
Astronomical Twilight 4:41 AM MDT 9:31 PM MDT
Moon 8:40 AM MDT 9:27 PM MDT
Length of Visible Light 14h 38m
Length of Day
13h 44m
Tomorrow will be 1m 22s shorter.
Waxing Crescent, 7% of the Moon is Illuminated
Today
Waxing Crescent
Aug 3
First Quarter
Aug 10
Full
Aug 17
Last Quarter
Aug 25
New

Today's Extremes

State Highs State Lows

Community

WunderPhotos

Upload Photos

1,738,783 photos uploaded!

Nearby

Snow Depth

Station Depth Elevation
No new snow has been reported.

Earthquake Activity

City Distance Mag. Time & Date
No recent earthquake activity has been reported nearby.
Minimum magnitude displayed is 2.5.

Coastal Water Temperatures

Place Temperature
No Stations Reporting

Nearby Weather Stations

Station Location Temp. Heat Index Dew Point Humidity Wind Precip. Elev Updated Type
APRSWXNET Dellcity TX , Salt Flat, TX 84 °F 83 °F 57 °F 40% South  at  2 mph 0.00 in / hr 3690 ft 10:03 AM MDT MADIS
RAWS PX WELL TX, Dell City, TX 77 °F 79 °F 64 °F 64% North  at  5 mph 0.00 in / hr 3873 ft 9:53 AM MDT MADIS
RAWS PINERY TX, Salt Flat, TX 74 °F 77 °F 58 °F 57% ENE  at  4 mph 0.00 in / hr 5380 ft 9:52 AM MDT MADIS
RAWS DOG CANYON TX, Salt Flat, TX 73 °F 77 °F 55 °F 54% North  at  5 mph 0.00 in / hr 6262 ft 9:54 AM MDT MADIS
RAWS THE BOWL TX, Salt Flat, TX 65 °F - 48 °F 55% WSW  at  9 mph 0.00 in / hr 7754 ft 9:38 AM MDT MADIS

Show More Stations Show Fewer Stations